Acton, Montana
Current Conditions -  °F | °C
As of 7:53 AM on Saturday 20 Dec 2014 (Local Time) from KBIL Reporting Station
Broken Clouds Broken Clouds  
Wind Chill: 19°   Ceiling: 25000
Heat Index: 30°   Visibility: 10mi
Dew Point: 20°   Wind: 16mph
Humidity: 66%   Direction: 230°SW
Pressure: 29.92"   Gusts: NA
Location:  45.93°N, 108.69°W
Report Text: KBIL 201453Z 23014KT 10SM FEW100 SCT200 BKN250 M01/M07 A2992 RMK AO2 SLP157 T10111067 53007
Loading
Personal Weather Stations






























Interactive Weather Map New forecast layout! Learn more

10-Day Weather Forecast

Advertisements
Track Severe Weather on mobile